Bolivia, Illinois
Current Conditions -  °F | °C
As of 9:52 AM on Friday 19 Dec 2014 (Local Time) from KSPI Reporting Station
Broken Clouds Broken Clouds  
Wind Chill: 24°   Ceiling: 4300
Heat Index: 30°   Visibility: 10mi
Dew Point: 22°   Wind: 6mph
Humidity: 72%   Direction: 70°ENE
Pressure: 30.33"   Gusts: NA
Location:  39.766°N, 89.4108°W
Report Text: KSPI 191552Z 07005KT 10SM BKN043 M01/M06 A3033 RMK AO2 SLP278 T10111056
Loading
Personal Weather Stations






























Interactive Weather Map New forecast layout! Learn more

10-Day Weather Forecast

Advertisements
Track Severe Weather on mobile